createdAt,value
2022-10-05T00:01:41.058Z,9.32
2022-10-05T00:04:12.301Z,9.50
2022-10-05T00:06:41.074Z,10.98
2022-10-05T00:09:11.736Z,10.30
2022-10-05T00:11:39.096Z,11.40
2022-10-05T00:14:12.043Z,12.65
2022-10-05T00:16:39.485Z,11.48
2022-10-05T00:19:10.971Z,12.02
2022-10-05T00:21:38.592Z,12.32
2022-10-05T00:24:10.666Z,12.15
2022-10-05T00:26:37.982Z,12.10
2022-10-05T00:29:12.355Z,11.75
2022-10-05T00:31:39.758Z,10.52
2022-10-05T00:34:07.110Z,11.95
2022-10-05T00:36:34.492Z,12.68
2022-10-05T00:39:02.904Z,11.95
2022-10-05T00:41:35.817Z,11.35
2022-10-05T00:44:17.578Z,11.10
2022-10-05T00:46:53.674Z,11.60
2022-10-05T00:49:27.823Z,10.95
2022-10-05T00:51:59.690Z,10.82
2022-10-05T00:54:30.964Z,11.00
2022-10-05T00:57:07.098Z,10.90
2022-10-05T00:59:40.003Z,10.10
2022-10-05T01:02:12.104Z,11.18
2022-10-05T01:04:45.121Z,10.93
2022-10-05T01:07:15.822Z,11.70
2022-10-05T01:09:46.146Z,11.18
2022-10-05T01:17:50.214Z,10.93
2022-10-05T01:20:25.110Z,10.73
2022-10-05T01:23:04.397Z,11.30
2022-10-05T01:25:35.803Z,10.75
2022-10-05T01:28:07.508Z,9.90
2022-10-05T01:30:38.636Z,10.07
2022-10-05T01:33:10.419Z,11.45
2022-10-05T01:35:42.133Z,10.98
2022-10-05T01:38:16.808Z,12.25
2022-10-05T01:40:49.450Z,10.82
2022-10-05T01:43:20.053Z,10.02
2022-10-05T01:45:54.637Z,11.57
2022-10-05T01:48:27.603Z,11.52
2022-10-05T01:51:00.729Z,10.93
2022-10-05T01:53:31.966Z,10.68
2022-10-05T01:56:03.398Z,11.20
2022-10-05T01:58:36.899Z,11.40
2022-10-05T02:01:06.799Z,12.13
2022-10-05T02:03:40.412Z,13.23
2022-10-05T02:06:11.247Z,13.90
2022-10-05T02:08:39.841Z,12.27
2022-10-05T02:11:08.135Z,12.55
2022-10-05T02:13:39.626Z,12.70
2022-10-05T02:16:10.136Z,13.95
2022-10-05T02:18:40.570Z,13.75
2022-10-05T02:21:08.823Z,12.75
2022-10-05T02:23:37.738Z,13.77
2022-10-05T02:26:05.663Z,13.45
2022-10-05T02:28:35.713Z,12.15
2022-10-05T02:31:06.100Z,12.68
2022-10-05T02:33:34.226Z,11.35
2022-10-05T02:36:02.448Z,11.63
2022-10-05T02:38:33.971Z,12.25
2022-10-05T02:41:08.089Z,10.77
2022-10-05T02:43:42.816Z,10.63
2022-10-05T02:46:16.770Z,10.45
2022-10-05T02:48:47.551Z,10.17
2022-10-05T02:51:19.289Z,10.18
2022-10-05T02:53:52.943Z,10.82
2022-10-05T02:56:24.072Z,9.82
2022-10-05T02:58:56.317Z,8.98
2022-10-05T03:01:26.524Z,8.73
2022-10-05T03:03:58.958Z,9.82
2022-10-05T03:06:27.571Z,9.82
2022-10-05T03:09:00.750Z,8.80
2022-10-05T03:11:31.136Z,9.90
2022-10-05T03:14:02.745Z,10.48
2022-10-05T03:16:36.840Z,9.60
2022-10-05T03:19:10.662Z,11.48
2022-10-05T03:21:45.832Z,10.65
2022-10-05T03:24:25.806Z,9.95
2022-10-05T03:26:56.945Z,10.43
2022-10-05T03:29:29.666Z,9.43
2022-10-05T03:32:01.442Z,10.25
2022-10-05T03:34:32.187Z,9.55
2022-10-05T03:37:02.060Z,10.05
2022-10-05T03:39:35.142Z,10.23
2022-10-05T03:42:06.466Z,9.98
2022-10-05T03:44:37.558Z,9.60
2022-10-05T03:47:15.637Z,9.73
2022-10-05T03:49:58.043Z,9.63
2022-10-05T03:52:28.494Z,9.10
2022-10-05T03:54:58.879Z,9.27
2022-10-05T03:57:27.301Z,10.00
2022-10-05T03:59:59.710Z,8.60
2022-10-05T04:02:30.228Z,10.55
2022-10-05T04:05:00.169Z,10.55
2022-10-05T04:07:31.434Z,10.50
2022-10-05T04:10:01.166Z,10.45
2022-10-05T04:12:31.243Z,11.10
2022-10-05T04:15:00.362Z,11.43
2022-10-05T04:17:32.460Z,11.82
2022-10-05T04:20:01.287Z,10.90
2022-10-05T04:22:31.152Z,11.73
2022-10-05T04:25:01.564Z,11.70
2022-10-05T04:27:31.888Z,11.73
2022-10-05T04:30:02.979Z,10.95
2022-10-05T04:32:37.199Z,11.32
2022-10-05T04:35:14.951Z,10.90
2022-10-05T04:37:48.246Z,11.13
2022-10-05T04:40:23.461Z,10.05
2022-10-05T04:42:56.638Z,10.57
2022-10-05T04:45:31.527Z,10.48
2022-10-05T04:50:33.171Z,8.75
2022-10-05T04:53:04.344Z,9.60
2022-10-05T04:55:35.405Z,9.05
2022-10-05T04:58:06.707Z,8.93
2022-10-05T05:00:41.101Z,9.13
2022-10-05T05:03:19.809Z,8.93
2022-10-05T05:06:15.281Z,8.38
2022-10-05T05:08:48.360Z,8.70
2022-10-05T05:11:24.399Z,8.63
2022-10-05T05:14:10.041Z,10.18
2022-10-05T05:16:39.383Z,10.02
2022-10-05T05:19:21.686Z,10.90
2022-10-05T05:21:54.905Z,10.77
2022-10-05T05:24:25.667Z,10.65
2022-10-05T05:27:02.063Z,11.93
2022-10-05T05:29:34.743Z,11.63
2022-10-05T05:32:07.583Z,12.27
2022-10-05T05:34:42.408Z,11.90
2022-10-05T05:39:42.829Z,12.85
2022-10-05T05:42:17.653Z,12.90
2022-10-05T05:47:16.295Z,10.43
2022-10-05T05:49:48.836Z,10.77
2022-10-05T05:52:19.251Z,10.95
2022-10-05T05:54:51.036Z,10.65
2022-10-05T05:57:20.393Z,10.15
2022-10-05T05:59:52.813Z,9.73
2022-10-05T06:02:22.494Z,10.50
2022-10-05T06:04:51.865Z,10.68
2022-10-05T06:07:25.659Z,9.07
2022-10-05T06:09:59.614Z,8.95
2022-10-05T06:12:29.937Z,8.93
2022-10-05T06:14:59.007Z,9.73
2022-10-05T06:17:29.918Z,9.57
2022-10-05T06:20:03.962Z,9.60
2022-10-05T06:22:35.112Z,8.07
2022-10-05T06:25:12.944Z,8.93
2022-10-05T06:27:57.078Z,9.68
2022-10-05T06:30:24.475Z,7.97
2022-10-05T06:33:05.959Z,9.60
2022-10-05T06:35:39.989Z,7.90
2022-10-05T06:38:15.821Z,8.37
2022-10-05T06:40:51.756Z,8.27
2022-10-05T06:43:30.995Z,8.57
2022-10-05T06:46:04.699Z,7.63
2022-10-05T06:48:37.518Z,7.47
2022-10-05T06:51:08.130Z,7.88
2022-10-05T06:53:38.946Z,8.00
2022-10-05T06:56:09.730Z,7.05
2022-10-05T06:58:46.901Z,7.82
2022-10-05T07:01:18.197Z,7.07
2022-10-05T07:03:52.192Z,7.20
2022-10-05T07:06:22.270Z,6.63
2022-10-05T07:09:04.492Z,7.80
2022-10-05T07:11:40.514Z,6.90
2022-10-05T07:14:17.188Z,6.70
2022-10-05T07:16:52.633Z,7.47
2022-10-05T07:19:25.661Z,8.40
2022-10-05T07:21:59.689Z,7.43
2022-10-05T07:24:31.445Z,7.93
2022-10-05T07:27:04.294Z,7.85
2022-10-05T07:29:36.193Z,8.77
2022-10-05T07:32:08.361Z,8.88
2022-10-05T07:34:41.181Z,9.30
2022-10-05T07:37:27.263Z,7.95
2022-10-05T07:40:01.545Z,7.80
2022-10-05T07:42:51.728Z,7.30
2022-10-05T07:45:26.988Z,7.35
2022-10-05T07:47:55.966Z,6.82
2022-10-05T07:50:25.474Z,6.32
2022-10-05T07:52:55.893Z,7.13
2022-10-05T07:55:25.136Z,7.72
2022-10-05T07:57:56.779Z,8.05
2022-10-05T08:00:27.595Z,6.93
2022-10-05T08:02:58.163Z,8.02
2022-10-05T08:05:27.412Z,7.70
2022-10-05T08:07:57.786Z,6.88
2022-10-05T08:10:28.619Z,6.38
2022-10-05T08:13:01.306Z,7.72
2022-10-05T08:15:32.839Z,6.78
2022-10-05T08:18:01.969Z,6.60
2022-10-05T08:20:39.735Z,6.80
2022-10-05T08:23:12.840Z,7.00
2022-10-05T08:25:46.041Z,6.53
2022-10-05T08:28:16.161Z,6.88
2022-10-05T08:30:52.982Z,6.70
2022-10-05T08:33:21.083Z,6.38
2022-10-05T08:35:51.175Z,6.13
2022-10-05T08:38:20.778Z,6.90
2022-10-05T08:41:05.973Z,6.75
2022-10-05T08:46:17.828Z,7.40
2022-10-05T08:49:00.108Z,7.55
2022-10-05T08:51:57.312Z,7.28
2022-10-05T08:54:47.199Z,6.38
2022-10-05T08:57:26.010Z,7.13
2022-10-05T09:00:08.203Z,6.90
2022-10-05T09:02:41.521Z,6.60
2022-10-05T09:05:21.647Z,6.53
2022-10-05T09:08:12.727Z,6.72
2022-10-05T09:10:53.266Z,6.43
2022-10-05T09:13:27.332Z,6.45
2022-10-05T09:16:08.143Z,6.57
2022-10-05T09:18:46.771Z,6.47
2022-10-05T09:21:19.391Z,6.68
2022-10-05T09:23:50.389Z,5.72
2022-10-05T09:26:43.033Z,6.15
2022-10-05T09:29:20.461Z,5.95
2022-10-05T09:31:57.900Z,5.75
2022-10-05T09:34:48.769Z,5.35
2022-10-05T09:37:26.385Z,5.28
2022-10-05T09:40:18.019Z,5.10
2022-10-05T09:42:55.654Z,5.32
2022-10-05T09:45:49.931Z,4.93
2022-10-05T09:48:36.544Z,4.80
2022-10-05T09:51:19.566Z,5.28
2022-10-05T09:54:08.436Z,5.07
2022-10-05T09:56:53.587Z,4.15
2022-10-05T09:59:36.775Z,4.53
2022-10-05T10:02:27.469Z,3.65
2022-10-05T10:05:05.428Z,3.60
2022-10-05T10:07:39.300Z,3.55
2022-10-05T10:10:31.405Z,3.70
2022-10-05T10:13:08.988Z,3.58
2022-10-05T10:15:44.932Z,3.78
2022-10-05T10:18:18.886Z,4.00
2022-10-05T10:20:56.126Z,2.83
2022-10-05T10:23:29.243Z,3.10
2022-10-05T10:26:04.399Z,2.33
2022-10-05T10:28:50.277Z,2.80
2022-10-05T10:31:39.639Z,2.22
2022-10-05T10:34:17.934Z,2.42
2022-10-05T10:37:06.134Z,2.35
2022-10-05T10:39:39.282Z,1.80
2022-10-05T10:42:22.551Z,2.08
2022-10-05T10:45:10.254Z,2.22
2022-10-05T10:47:59.765Z,2.88
2022-10-05T10:50:37.830Z,1.95
2022-10-05T10:53:13.958Z,1.80
2022-10-05T10:55:47.365Z,1.85
2022-10-05T10:58:39.673Z,2.30
2022-10-05T11:01:13.117Z,1.52
2022-10-05T11:03:56.826Z,1.63
2022-10-05T11:06:51.099Z,1.45
2022-10-05T11:09:24.852Z,1.52
2022-10-05T11:12:07.304Z,1.50
2022-10-05T11:14:43.330Z,1.63
2022-10-05T11:17:31.538Z,1.52
2022-10-05T11:20:09.271Z,2.00
2022-10-05T11:22:51.273Z,1.42
2022-10-05T11:25:25.196Z,1.52
2022-10-05T11:28:01.880Z,1.50
2022-10-05T11:30:36.937Z,1.63
2022-10-05T11:33:24.981Z,1.27
2022-10-05T11:36:08.773Z,1.45
2022-10-05T11:39:06.343Z,1.67
2022-10-05T11:41:43.574Z,1.50
2022-10-05T11:44:35.010Z,1.40
2022-10-05T11:47:04.859Z,1.30
2022-10-05T11:49:36.430Z,1.13
2022-10-05T11:52:07.686Z,1.30
2022-10-05T11:55:05.862Z,1.45
2022-10-05T11:57:34.535Z,1.50
2022-10-05T12:00:06.977Z,1.40
2022-10-05T12:02:43.932Z,1.20
2022-10-05T12:05:14.380Z,1.90
2022-10-05T12:07:45.540Z,1.63
2022-10-05T12:10:20.050Z,1.42
2022-10-05T12:13:05.415Z,1.65
2022-10-05T12:15:38.393Z,2.17
2022-10-05T12:18:08.249Z,2.17
2022-10-05T12:20:39.776Z,1.83
2022-10-05T12:23:11.715Z,1.83
2022-10-05T12:25:40.792Z,1.92
2022-10-05T12:28:10.794Z,1.50
2022-10-05T12:30:54.666Z,2.25
2022-10-05T12:33:23.841Z,1.55
2022-10-05T12:35:53.757Z,1.38
2022-10-05T12:38:26.872Z,1.73
2022-10-05T12:40:59.322Z,1.70
2022-10-05T12:43:32.194Z,1.50
2022-10-05T12:46:04.040Z,1.60
2022-10-05T12:48:42.109Z,1.20
2022-10-05T12:51:12.785Z,1.58
2022-10-05T12:53:48.354Z,1.40
2022-10-05T12:56:21.465Z,1.60
2022-10-05T12:58:52.334Z,1.33
2022-10-05T13:01:26.145Z,1.60
2022-10-05T13:03:55.486Z,1.30
2022-10-05T13:06:27.287Z,1.40
2022-10-05T13:08:57.730Z,1.50
2022-10-05T13:11:31.822Z,1.40
2022-10-05T13:14:04.156Z,1.60
2022-10-05T13:16:38.517Z,1.35
2022-10-05T13:19:23.784Z,1.50
2022-10-05T13:24:22.924Z,1.65
2022-10-05T13:26:52.909Z,1.60
2022-10-05T13:29:24.878Z,1.92
2022-10-05T13:31:55.129Z,1.58
2022-10-05T13:34:25.746Z,1.60
2022-10-05T13:37:00.324Z,1.65
2022-10-05T13:39:32.463Z,1.58
2022-10-05T13:42:02.893Z,2.03
2022-10-05T13:44:33.855Z,1.88
2022-10-05T13:47:06.698Z,1.58
2022-10-05T13:49:39.831Z,1.70
2022-10-05T13:52:12.795Z,1.55
2022-10-05T13:54:43.713Z,1.70
2022-10-05T13:57:17.038Z,1.80
2022-10-05T13:59:48.304Z,1.63
2022-10-05T14:02:19.130Z,1.70
2022-10-05T14:04:49.430Z,1.90
2022-10-05T14:07:25.228Z,2.10
2022-10-05T14:09:52.919Z,1.90
2022-10-05T14:12:21.331Z,2.38
2022-10-05T14:14:50.757Z,1.20
2022-10-05T14:17:34.390Z,1.90
2022-10-05T14:20:03.929Z,2.28
2022-10-05T14:22:31.243Z,1.13
2022-10-05T14:25:13.663Z,1.50
2022-10-05T14:27:49.129Z,1.60
2022-10-05T14:30:20.506Z,2.10
2022-10-05T14:32:50.920Z,1.83
2022-10-05T14:35:22.033Z,1.30
2022-10-05T14:37:51.623Z,1.45
2022-10-05T14:40:23.577Z,1.80
2022-10-05T14:42:51.280Z,1.70
2022-10-05T14:45:19.598Z,1.55
2022-10-05T14:47:48.950Z,1.92
2022-10-05T14:50:17.729Z,1.70
2022-10-05T14:52:51.792Z,1.58
2022-10-05T14:55:26.136Z,1.20
2022-10-05T14:57:58.099Z,1.17
2022-10-05T15:00:25.950Z,1.52
2022-10-05T15:02:58.271Z,1.80
2022-10-05T15:05:31.127Z,1.40
2022-10-05T15:08:02.503Z,1.20
2022-10-05T15:10:33.244Z,1.60
2022-10-05T15:13:10.631Z,1.10
2022-10-05T15:15:43.134Z,1.50
2022-10-05T15:18:15.776Z,1.08
2022-10-05T15:20:52.928Z,1.40
2022-10-05T15:23:25.046Z,1.45
2022-10-05T15:25:56.246Z,1.70
2022-10-05T15:28:27.655Z,1.48
2022-10-05T15:31:02.211Z,1.42
2022-10-05T15:33:31.722Z,1.58
2022-10-05T15:36:04.191Z,2.03
2022-10-05T15:38:34.830Z,1.50
2022-10-05T15:41:08.008Z,1.70
2022-10-05T15:43:40.645Z,1.73
2022-10-05T15:46:13.753Z,2.25
2022-10-05T15:48:45.283Z,1.50
2022-10-05T15:51:18.517Z,1.55
2022-10-05T15:53:50.785Z,1.92
2022-10-05T15:56:20.150Z,1.73
2022-10-05T15:58:53.906Z,1.73
2022-10-05T16:01:22.543Z,1.63
2022-10-05T16:03:51.428Z,1.75
2022-10-05T16:06:45.768Z,1.67
2022-10-05T16:09:22.379Z,1.70
2022-10-05T16:11:59.634Z,2.00
2022-10-05T16:14:34.302Z,1.70
2022-10-05T16:17:08.007Z,2.30
2022-10-05T16:19:40.772Z,1.77
2022-10-05T16:22:14.414Z,2.00
2022-10-05T16:24:49.683Z,1.50
2022-10-05T16:27:20.526Z,1.70
2022-10-05T16:29:53.146Z,1.88
2022-10-05T16:32:23.564Z,1.60
2022-10-05T16:34:58.995Z,1.90
2022-10-05T16:37:35.295Z,1.92
2022-10-05T16:40:07.818Z,1.55
2022-10-05T16:42:46.241Z,1.60
2022-10-05T16:45:23.646Z,1.40
2022-10-05T16:47:53.444Z,1.50
2022-10-05T16:50:22.487Z,1.80
2022-10-05T16:52:54.928Z,1.73
2022-10-05T16:55:28.012Z,1.40
2022-10-05T16:57:56.833Z,1.90
2022-10-05T17:00:24.895Z,1.70
2022-10-05T17:02:58.435Z,1.90
2022-10-05T17:05:35.252Z,1.90
2022-10-05T17:08:09.461Z,2.00
2022-10-05T17:10:42.840Z,1.83
2022-10-05T17:13:16.415Z,2.00
2022-10-05T17:15:54.003Z,1.90
2022-10-05T17:18:28.230Z,1.77
2022-10-05T17:21:07.889Z,1.90
2022-10-05T17:23:40.615Z,2.63
2022-10-05T17:26:17.529Z,2.10
2022-10-05T17:28:58.167Z,2.28
2022-10-05T17:31:25.989Z,2.88
2022-10-05T17:34:14.007Z,2.58
2022-10-05T17:36:43.833Z,2.55
2022-10-05T17:39:14.008Z,2.70
2022-10-05T17:41:42.932Z,2.35
2022-10-05T17:44:20.670Z,2.53
2022-10-05T17:46:49.120Z,3.00
2022-10-05T17:49:26.390Z,2.70
2022-10-05T17:52:18.950Z,2.78
2022-10-05T17:55:14.447Z,2.67
2022-10-05T17:57:43.095Z,2.90
2022-10-05T18:00:31.385Z,2.60
2022-10-05T18:02:58.778Z,2.22
2022-10-05T18:05:27.736Z,2.88
2022-10-05T18:08:15.542Z,2.88
2022-10-05T18:11:05.870Z,2.53
2022-10-05T18:13:37.725Z,2.80
2022-10-05T18:16:05.194Z,2.22
2022-10-05T18:18:34.374Z,2.10
2022-10-05T18:21:20.305Z,2.22
2022-10-05T18:23:49.926Z,2.60
2022-10-05T18:26:24.581Z,2.28
2022-10-05T18:28:57.567Z,2.45
2022-10-05T18:31:28.859Z,2.25
2022-10-05T18:34:18.149Z,2.70
2022-10-05T18:36:59.152Z,2.17
2022-10-05T18:39:39.948Z,2.08
2022-10-05T18:42:11.445Z,2.30
2022-10-05T18:44:42.882Z,2.60
2022-10-05T18:47:14.512Z,1.85
2022-10-05T18:49:48.124Z,2.00
2022-10-05T18:52:20.973Z,2.33
2022-10-05T18:54:54.681Z,2.60
2022-10-05T18:57:33.223Z,2.20
2022-10-05T19:00:04.279Z,2.17
2022-10-05T19:02:35.349Z,2.08
2022-10-05T19:05:18.935Z,2.28
2022-10-05T19:08:00.552Z,2.40
2022-10-05T19:10:31.125Z,2.05
2022-10-05T19:13:06.553Z,2.72
2022-10-05T19:15:40.289Z,2.65
2022-10-05T19:18:21.524Z,2.00
2022-10-05T19:20:53.095Z,2.30
2022-10-05T19:23:26.420Z,2.30
2022-10-05T19:25:58.559Z,2.50
2022-10-05T19:28:29.377Z,2.03
2022-10-05T19:31:05.706Z,2.13
2022-10-05T19:33:38.747Z,2.50
2022-10-05T19:36:18.235Z,2.20
2022-10-05T19:38:50.662Z,2.30
2022-10-05T19:41:18.927Z,2.08
2022-10-05T19:43:53.405Z,2.40
2022-10-05T19:46:25.173Z,1.77
2022-10-05T19:48:53.418Z,2.10
2022-10-05T19:51:27.457Z,2.38
2022-10-05T19:53:56.009Z,2.73
2022-10-05T19:56:25.262Z,1.90
2022-10-05T19:58:56.264Z,2.17
2022-10-05T20:01:25.834Z,1.92
2022-10-05T20:03:53.613Z,2.17
2022-10-05T20:06:21.887Z,1.85
2022-10-05T20:08:51.846Z,1.73
2022-10-05T20:11:19.931Z,2.03
2022-10-05T20:13:48.080Z,1.55
2022-10-05T20:16:37.635Z,1.98
2022-10-05T20:19:48.939Z,1.80
2022-10-05T20:22:26.845Z,1.70
2022-10-05T20:24:54.801Z,1.60
2022-10-05T20:27:43.108Z,1.67
2022-10-05T20:30:11.359Z,1.67
2022-10-05T20:32:39.358Z,1.67
2022-10-05T20:35:08.729Z,1.50
2022-10-05T20:37:36.950Z,1.70
2022-10-05T20:40:04.607Z,1.55
2022-10-05T20:42:31.945Z,1.90
2022-10-05T20:44:59.298Z,2.03
2022-10-05T20:47:26.855Z,1.73
2022-10-05T20:49:54.494Z,1.70
2022-10-05T20:52:23.258Z,1.58
2022-10-05T20:54:53.406Z,1.73
2022-10-05T20:57:23.854Z,1.83
2022-10-05T20:59:51.743Z,1.85
2022-10-05T21:02:19.934Z,1.80
2022-10-05T21:04:48.321Z,1.38
2022-10-05T21:07:16.766Z,2.33
2022-10-05T21:09:46.540Z,2.08
2022-10-05T21:12:14.359Z,1.70
2022-10-05T21:14:41.779Z,1.80
2022-10-05T21:17:09.404Z,2.50
2022-10-05T21:19:39.326Z,1.77
2022-10-05T21:22:08.134Z,1.90
2022-10-05T21:24:36.168Z,1.90
2022-10-05T21:27:05.278Z,2.22
2022-10-05T21:29:34.077Z,2.17
2022-10-05T21:32:01.406Z,2.50
2022-10-05T21:34:29.406Z,2.03
2022-10-05T21:36:56.696Z,1.98
2022-10-05T21:39:24.658Z,2.17
2022-10-05T21:41:51.969Z,2.42
2022-10-05T21:44:20.624Z,2.10
2022-10-05T21:46:48.339Z,2.58
2022-10-05T21:49:19.497Z,1.80
2022-10-05T21:51:47.223Z,2.38
2022-10-05T21:54:15.540Z,2.00
2022-10-05T21:56:44.468Z,2.05
2022-10-05T21:59:12.654Z,2.22
2022-10-05T22:01:41.330Z,2.10
2022-10-05T22:04:08.611Z,2.33
2022-10-05T22:06:36.304Z,2.22
2022-10-05T22:09:04.497Z,2.45
2022-10-05T22:11:31.900Z,2.75
2022-10-05T22:14:02.445Z,1.88
2022-10-05T22:16:32.593Z,1.38
2022-10-05T22:19:03.368Z,1.50
2022-10-05T22:21:30.755Z,1.13
2022-10-05T22:23:58.379Z,1.85
2022-10-05T22:26:25.686Z,1.10
2022-10-05T22:28:54.998Z,1.13
2022-10-05T22:31:22.600Z,1.13
2022-10-05T22:33:50.046Z,1.17
2022-10-05T22:36:18.982Z,1.40
2022-10-05T22:38:47.421Z,1.40
2022-10-05T22:41:15.267Z,1.50
2022-10-05T22:43:42.569Z,1.67
2022-10-05T22:46:10.519Z,1.70
2022-10-05T22:48:38.051Z,1.20
2022-10-05T22:51:05.433Z,1.20
2022-10-05T22:53:34.070Z,1.40
2022-10-05T22:56:04.949Z,1.48
2022-10-05T22:58:32.251Z,1.45
2022-10-05T23:01:01.266Z,1.40
2022-10-05T23:03:28.577Z,1.25
2022-10-05T23:06:00.034Z,1.38
2022-10-05T23:08:27.843Z,1.30
2022-10-05T23:11:00.527Z,1.20
2022-10-05T23:13:27.909Z,1.10
2022-10-05T23:15:55.266Z,1.20
2022-10-05T23:18:22.577Z,1.67
2022-10-05T23:20:53.558Z,1.20
2022-10-05T23:23:20.925Z,1.50
2022-10-05T23:25:48.265Z,1.75
2022-10-05T23:28:17.030Z,1.35
2022-10-05T23:30:44.534Z,1.40
2022-10-05T23:33:11.939Z,2.05
2022-10-05T23:35:39.247Z,1.55
2022-10-05T23:38:06.542Z,1.38
2022-10-05T23:40:33.943Z,1.38
2022-10-05T23:43:01.542Z,1.55
2022-10-05T23:45:30.198Z,1.60
2022-10-05T23:47:57.531Z,1.52
2022-10-05T23:50:26.851Z,1.40
2022-10-05T23:52:54.169Z,1.10
2022-10-05T23:55:21.510Z,1.85
2022-10-05T23:57:48.821Z,1.90
